Time;durP1;ratioP1;P1;durP2;ratioP2;P2;SDS_P1;SDS_P2;PMS_P1;PMS_P2;Temp;Humidity;BMP_temperature;BMP_pressure;BME280_temperature;BME280_humidity;BME280_pressure;Samples;Min_cycle;Max_cycle;Signal;HPM_P1;HPM_P2
2023/07/20 00:02:16;;;;;;;6.97;2.17;;;;;;;23.22;49.01;94647.16;5108325;28;20027;-90
2023/07/20 00:04:41;;;;;;;6.88;1.75;;;;;;;23.26;49.04;94647.63;5109396;28;20494;-91
2023/07/20 00:07:07;;;;;;;7.25;2.03;;;;;;;23.28;49.43;94649.91;5108866;28;20024;-89
2023/07/20 00:09:32;;;;;;;6.57;2.22;;;;;;;23.32;49.65;94670.00;5108236;28;20023;-89
2023/07/20 00:12:00;;;;;;;8.18;2.75;;;;;;;23.39;50.00;94674.25;5108394;28;20023;-89
2023/07/20 00:14:25;;;;;;;8.50;2.55;;;;;;;23.43;50.24;94669.88;5108322;28;20496;-89
2023/07/20 00:16:55;;;;;;;7.65;2.00;;;;;;;23.47;50.08;94678.75;5107947;28;20067;-90
2023/07/20 00:19:25;;;;;;;7.43;2.58;;;;;;;23.57;50.22;94667.94;5108375;28;20028;-89
2023/07/20 00:21:50;;;;;;;7.35;2.13;;;;;;;23.64;49.61;94667.34;5108651;28;20034;-89
2023/07/20 00:24:16;;;;;;;6.25;2.13;;;;;;;23.69;49.86;94671.38;5108316;28;20031;-89
2023/07/20 00:26:41;;;;;;;5.95;2.08;;;;;;;23.73;49.48;94666.22;5108183;28;20032;-90
2023/07/20 00:29:06;;;;;;;7.05;2.00;;;;;;;23.78;49.39;94687.84;5108238;28;20028;-89
2023/07/20 00:31:32;;;;;;;7.47;2.25;;;;;;;23.82;49.79;94677.06;5106360;28;20023;-89
2023/07/20 00:33:57;;;;;;;7.30;2.33;;;;;;;23.87;49.87;94683.91;5108033;28;20487;-89
2023/07/20 00:36:23;;;;;;;8.45;2.47;;;;;;;23.84;49.87;94680.84;5118906;28;20079;-89
2023/07/20 00:38:48;;;;;;;6.72;2.20;;;;;;;23.90;49.61;94682.81;5108740;28;20038;-89
2023/07/20 00:41:14;;;;;;;7.43;2.13;;;;;;;23.95;49.82;94691.16;5108371;28;20471;-89
2023/07/20 00:43:39;;;;;;;5.65;2.10;;;;;;;23.97;50.31;94683.00;5108055;28;20032;-90
2023/07/20 00:46:05;;;;;;;3.70;1.98;;;;;;;23.98;50.27;94684.50;5110158;28;20059;-89
2023/07/20 00:48:31;;;;;;;6.13;2.20;;;;;;;23.92;50.48;94678.22;5111106;28;20024;-89
2023/07/20 00:50:58;;;;;;;8.20;2.15;;;;;;;23.91;50.24;94673.09;5112622;28;20024;-89
2023/07/20 00:53:24;;;;;;;6.10;2.08;;;;;;;23.84;50.52;94655.59;5108995;28;20029;-89
2023/07/20 00:55:49;;;;;;;6.93;1.80;;;;;;;23.82;50.11;94654.63;5090976;28;20026;-89
2023/07/20 00:58:14;;;;;;;6.00;2.38;;;;;;;23.77;50.48;94649.84;5107492;28;20032;-89
2023/07/20 01:00:40;;;;;;;4.13;1.75;;;;;;;23.73;50.40;94657.78;5110804;28;20024;-90
2023/07/20 01:03:05;;;;;;;7.88;2.70;;;;;;;23.69;51.04;94660.16;5107977;28;20053;-90
2023/07/20 01:06:02;;;;;;;5.93;1.90;;;;;;;23.72;50.94;94664.69;5108070;28;20581;-90
2023/07/20 01:08:31;;;;;;;6.63;2.10;;;;;;;23.67;51.06;94659.91;5107999;28;20028;-88
2023/07/20 01:11:17;;;;;;;6.22;1.77;;;;;;;23.62;51.14;94667.09;5105490;28;20016;-90
2023/07/20 01:13:43;;;;;;;6.60;2.00;;;;;;;23.52;51.19;94671.56;5106804;28;20088;-89
2023/07/20 01:16:09;;;;;;;5.55;2.20;;;;;;;23.50;51.29;94671.31;5107064;28;20560;-89
2023/07/20 01:18:34;;;;;;;4.90;1.80;;;;;;;23.49;51.23;94656.53;5107446;28;20581;-89
2023/07/20 01:21:04;;;;;;;6.72;2.13;;;;;;;23.48;51.04;94665.50;5106939;28;20080;-89
2023/07/20 01:23:54;;;;;;;6.25;2.13;;;;;;;23.48;51.10;94671.84;5106954;28;20497;-88
2023/07/20 01:26:22;;;;;;;6.40;1.88;;;;;;;23.48;51.19;94665.50;5116039;28;20176;-89
2023/07/20 01:29:11;;;;;;;9.00;2.40;;;;;;;23.43;51.82;94666.31;5111132;28;20051;-89
2023/07/20 01:31:37;;;;;;;7.47;2.10;;;;;;;23.38;52.01;94675.53;5104125;28;20071;-89
2023/07/20 01:34:04;;;;;;;5.53;1.80;;;;;;;23.42;51.74;94676.78;5105871;28;20485;-88
2023/07/20 01:36:31;;;;;;;7.50;2.30;;;;;;;23.37;51.86;94680.41;5106580;28;20066;-89
2023/07/20 01:38:57;;;;;;;7.90;2.50;;;;;;;23.32;52.14;94670.75;5105526;28;20498;-90
2023/07/20 01:41:23;;;;;;;8.07;2.47;;;;;;;23.31;52.15;94669.25;5105239;28;20034;-88
2023/07/20 01:43:48;;;;;;;6.95;1.90;;;;;;;23.28;52.31;94666.72;5107302;28;20020;-89
2023/07/20 01:46:14;;;;;;;6.53;2.10;;;;;;;23.30;52.59;94664.16;5106386;28;20020;-89
2023/07/20 01:48:39;;;;;;;7.55;2.03;;;;;;;23.26;52.63;94658.84;5105866;28;20024;-89
2023/07/20 01:51:05;;;;;;;4.65;1.88;;;;;;;23.28;52.50;94656.28;5105141;28;20028;-89
2023/07/20 01:53:30;;;;;;;6.32;1.98;;;;;;;23.25;52.62;94662.94;5105135;28;20068;-89
2023/07/20 01:55:56;;;;;;;5.40;1.80;;;;;;;23.27;52.46;94662.41;5106695;28;20016;-90
2023/07/20 01:58:22;;;;;;;8.43;2.30;;;;;;;23.25;52.54;94665.75;5106175;28;20035;-88
2023/07/20 02:00:47;;;;;;;6.32;2.17;;;;;;;23.20;52.56;94660.97;5105646;28;20012;-87
2023/07/20 02:03:13;;;;;;;5.13;2.08;;;;;;;23.18;52.46;94655.13;5112617;28;20467;-89
2023/07/20 02:05:38;;;;;;;7.18;2.00;;;;;;;23.21;52.39;94661.72;5111228;28;20032;-88
2023/07/20 02:08:04;;;;;;;8.02;2.42;;;;;;;23.14;52.49;94663.06;5110077;28;20027;-89
2023/07/20 02:10:30;;;;;;;5.30;1.80;;;;;;;23.09;52.50;94655.47;5110978;28;20027;-89
2023/07/20 02:12:55;;;;;;;8.45;1.83;;;;;;;23.08;52.66;94653.19;5110376;28;20036;-89
2023/07/20 02:15:21;;;;;;;9.38;2.60;;;;;;;23.02;52.68;94648.41;5109138;28;20024;-88
2023/07/20 02:17:46;;;;;;;6.00;2.63;;;;;;;23.01;52.69;94655.31;5120651;28;20036;-89
2023/07/20 02:20:12;;;;;;;6.43;2.20;;;;;;;23.00;52.86;94653.78;5110447;28;20024;-88
2023/07/20 02:22:38;;;;;;;8.27;2.00;;;;;;;22.99;52.57;94657.84;5111375;28;20019;-89
2023/07/20 02:25:04;;;;;;;6.15;1.92;;;;;;;22.99;53.12;94652.25;5109179;28;20087;-88
2023/07/20 02:27:30;;;;;;;7.95;2.78;;;;;;;22.97;52.93;94654.84;5110809;28;20085;-88
2023/07/20 02:29:56;;;;;;;6.55;2.25;;;;;;;22.96;52.90;94656.13;5113198;28;20545;-88
2023/07/20 02:32:21;;;;;;;8.43;2.70;;;;;;;22.96;53.04;94649.75;5111222;28;20020;-89
2023/07/20 02:34:46;;;;;;;6.95;2.72;;;;;;;22.93;53.32;94648.75;5110889;27;20024;-89
2023/07/20 02:37:12;;;;;;;7.90;2.30;;;;;;;22.89;53.43;94639.91;5109342;28;20100;-89
2023/07/20 02:39:39;;;;;;;6.55;2.42;;;;;;;22.90;53.83;94637.84;5109350;28;20516;-88
2023/07/20 02:42:05;;;;;;;7.50;2.65;;;;;;;22.85;54.17;94636.59;5109033;28;20034;-88
2023/07/20 02:44:30;;;;;;;14.93;3.08;;;;;;;22.86;54.22;94629.69;5110669;28;20032;-89
2023/07/20 02:46:55;;;;;;;13.30;2.65;;;;;;;22.88;54.21;94629.19;5109322;28;20077;-89
2023/07/20 02:49:21;;;;;;;9.02;2.33;;;;;;;22.81;54.65;94630.50;5110470;28;20020;-89
2023/07/20 02:51:46;;;;;;;10.57;3.10;;;;;;;22.83;54.58;94622.34;5109910;28;20053;-89
2023/07/20 02:54:12;;;;;;;12.02;3.53;;;;;;;22.78;54.88;94629.53;5109635;28;20123;-89
2023/07/20 02:56:37;;;;;;;9.57;2.78;;;;;;;22.73;54.78;94630.34;5110251;28;20027;-88
2023/07/20 02:59:03;;;;;;;8.45;3.03;;;;;;;22.73;54.90;94641.56;5107992;28;20042;-89
2023/07/20 03:01:31;;;;;;;10.43;3.25;;;;;;;22.74;54.78;94640.25;5108633;28;20474;-88
2023/07/20 03:03:57;;;;;;;8.43;3.15;;;;;;;22.74;54.58;94631.84;5109079;28;20049;-89
2023/07/20 03:06:22;;;;;;;7.88;2.88;;;;;;;22.72;54.94;94630.88;5122260;28;20046;-89
2023/07/20 03:08:51;;;;;;;9.05;2.85;;;;;;;22.68;54.80;94622.75;5116952;27;20028;-89
2023/07/20 03:11:18;;;;;;;6.72;3.10;;;;;;;22.67;55.06;94631.69;5112753;28;20084;-90
2023/07/20 03:13:44;;;;;;;10.15;3.30;;;;;;;22.65;54.56;94631.44;5113699;28;20418;-89
2023/07/20 03:16:11;;;;;;;7.93;3.10;;;;;;;22.64;54.44;94630.69;5112844;28;20044;-87
2023/07/20 03:18:39;;;;;;;10.35;3.63;;;;;;;22.63;54.79;94640.38;5114295;28;20028;-87
2023/07/20 03:21:05;;;;;;;8.90;3.13;;;;;;;22.56;55.29;94640.19;5109465;28;20106;-85
2023/07/20 03:23:31;;;;;;;7.88;3.20;;;;;;;22.61;55.22;94651.34;5109645;28;20034;-85
2023/07/20 03:25:57;;;;;;;11.05;3.28;;;;;;;22.59;55.22;94648.28;5107533;28;20028;-84
2023/07/20 03:28:22;;;;;;;7.32;3.10;;;;;;;22.57;55.33;94642.47;5108952;28;20132;-83
2023/07/20 03:30:55;;;;;;;10.82;2.85;;;;;;;22.62;55.56;94649.31;5108962;28;20104;-86
2023/07/20 03:33:22;;;;;;;8.82;2.70;;;;;;;22.65;55.45;94649.03;5106863;28;20481;-83
2023/07/20 03:35:48;;;;;;;12.02;2.70;;;;;;;22.64;55.43;94647.47;5108874;28;20110;-83
2023/07/20 03:38:13;;;;;;;9.00;2.83;;;;;;;22.65;55.34;94654.63;5108304;27;20127;-83
2023/07/20 03:40:38;;;;;;;10.88;2.80;;;;;;;22.64;55.12;94650.28;5109188;28;20096;-85
2023/07/20 03:43:04;;;;;;;16.17;3.70;;;;;;;22.60;55.21;94658.22;5107576;28;20020;-84
2023/07/20 03:45:29;;;;;;;15.95;3.78;;;;;;;22.63;55.09;94650.81;5109054;28;20022;-84
2023/07/20 03:47:55;;;;;;;12.15;3.40;;;;;;;22.62;55.24;94650.06;5107951;28;20048;-84
2023/07/20 03:50:20;;;;;;;8.70;3.78;;;;;;;22.62;54.91;94652.88;5108318;28;20103;-83
2023/07/20 03:52:45;;;;;;;11.13;3.75;;;;;;;22.61;55.04;94650.59;5108472;28;20023;-83
2023/07/20 03:55:11;;;;;;;13.80;4.03;;;;;;;22.61;54.68;94648.53;5107212;28;20031;-83
2023/07/20 03:57:36;;;;;;;17.67;4.95;;;;;;;22.65;54.97;94657.44;5116503;28;20028;-91
2023/07/20 04:00:04;;;;;;;9.27;4.15;;;;;;;22.65;54.98;94651.81;5119584;28;20036;-91
2023/07/20 04:02:30;;;;;;;16.63;4.10;;;;;;;22.65;54.92;94649.03;5111981;28;20020;-91
2023/07/20 04:04:55;;;;;;;11.23;3.97;;;;;;;22.64;54.58;94649.53;5110841;28;20043;-94
2023/07/20 04:07:21;;;;;;;18.48;4.60;;;;;;;22.68;54.39;94644.41;5113821;28;20051;-91
2023/07/20 04:09:46;;;;;;;17.70;3.72;;;;;;;22.72;54.27;94656.09;5124569;28;20032;-91
2023/07/20 04:12:11;;;;;;;7.53;3.38;;;;;;;22.68;54.47;94647.22;5111167;27;20031;-92
2023/07/20 04:14:37;;;;;;;9.70;3.63;;;;;;;22.74;54.01;94643.06;5109415;28;20125;-91
2023/07/20 04:17:03;;;;;;;12.05;3.53;;;;;;;22.75;53.94;94636.16;5107455;28;20589;-83
2023/07/20 04:19:28;;;;;;;8.63;3.67;;;;;;;22.74;54.21;94639.50;5108306;28;20024;-86
2023/07/20 04:21:54;;;;;;;9.50;3.58;;;;;;;22.77;54.18;94642.03;5110645;28;20031;-91
2023/07/20 04:24:19;;;;;;;8.88;3.70;;;;;;;22.81;54.38;94630.50;5112538;27;20188;-92
2023/07/20 04:26:44;;;;;;;11.77;3.80;;;;;;;22.85;54.64;94631.00;5115827;28;20024;-91
2023/07/20 04:29:10;;;;;;;9.45;3.08;;;;;;;22.85;54.79;94627.44;5115047;28;20073;-93
2023/07/20 04:31:35;;;;;;;12.40;3.35;;;;;;;22.85;55.17;94633.78;5114531;28;20043;-91
2023/07/20 04:34:01;;;;;;;13.43;4.00;;;;;;;22.93;55.16;94634.75;5119680;28;20019;-90
2023/07/20 04:36:26;;;;;;;12.95;4.40;;;;;;;22.97;55.12;94632.41;5124841;28;20027;-90
2023/07/20 04:38:52;;;;;;;14.32;4.15;;;;;;;23.00;55.07;94627.81;5111023;28;20035;-90
2023/07/20 04:41:17;;;;;;;12.95;4.18;;;;;;;22.98;55.14;94628.31;5110038;27;20152;-91
2023/07/20 04:43:43;;;;;;;11.00;3.58;;;;;;;23.01;55.47;94624.47;5108467;28;20027;-91
2023/07/20 04:46:12;;;;;;;11.57;3.90;;;;;;;23.05;54.86;94627.75;5108600;28;20034;-90
2023/07/20 04:48:37;;;;;;;8.63;3.47;;;;;;;23.11;54.59;94626.91;5118629;28;20043;-92
2023/07/20 04:51:03;;;;;;;8.63;3.70;;;;;;;23.12;54.64;94625.66;5115800;27;20035;-91
2023/07/20 04:53:28;;;;;;;10.93;3.42;;;;;;;23.15;54.41;94628.13;5110280;28;20429;-92
2023/07/20 04:55:54;;;;;;;6.80;3.03;;;;;;;23.17;54.40;94625.56;5108064;28;20166;-90
2023/07/20 04:58:21;;;;;;;12.15;4.18;;;;;;;23.22;54.45;94626.78;5111157;28;20092;-92
2023/07/20 05:00:48;;;;;;;12.77;4.28;;;;;;;23.20;54.31;94626.56;5110860;28;20030;-92
2023/07/20 05:03:17;;;;;;;9.98;4.13;;;;;;;23.23;54.01;94633.94;5110293;28;20045;-91
2023/07/20 05:05:43;;;;;;;10.45;3.72;;;;;;;23.25;54.51;94628.53;5107855;28;20535;-92
2023/07/20 05:08:08;;;;;;;12.77;3.85;;;;;;;23.30;54.31;94627.72;5109834;28;20031;-90
2023/07/20 05:10:33;;;;;;;10.55;4.30;;;;;;;23.35;54.47;94628.94;5120432;28;20095;-91
2023/07/20 05:12:59;;;;;;;11.88;4.03;;;;;;;23.36;54.49;94636.06;5108605;28;20023;-90
2023/07/20 05:15:25;;;;;;;14.93;3.83;;;;;;;23.47;53.91;94647.91;5107530;28;20084;-90
2023/07/20 05:17:51;;;;;;;9.55;4.07;;;;;;;23.45;54.20;94644.84;5108288;28;20024;-91
2023/07/20 05:20:16;;;;;;;13.23;4.18;;;;;;;23.50;54.45;94638.41;5111953;28;20063;-91
2023/07/20 05:22:43;;;;;;;15.02;4.78;;;;;;;23.56;54.25;94632.72;5111883;28;20066;-91
2023/07/20 05:25:09;;;;;;;10.98;4.38;;;;;;;23.59;54.03;94634.50;5111024;28;20020;-92
2023/07/20 05:27:38;;;;;;;10.80;4.38;;;;;;;23.66;53.93;94644.38;5107792;28;20020;-91
2023/07/20 05:30:04;;;;;;;10.57;5.05;;;;;;;23.68;53.67;94648.16;5108590;28;20027;-92
2023/07/20 05:32:30;;;;;;;12.38;4.95;;;;;;;23.74;53.54;94642.47;5107527;28;20074;-89
2023/07/20 05:34:55;;;;;;;13.25;4.80;;;;;;;23.76;53.69;94645.53;5108079;28;20056;-91
2023/07/20 05:37:21;;;;;;;9.10;4.57;;;;;;;23.77;53.88;94652.66;5109312;28;20091;-90
2023/07/20 05:39:47;;;;;;;12.77;5.05;;;;;;;23.82;53.83;94657.44;5125488;28;20020;-91
2023/07/20 05:42:12;;;;;;;12.93;5.25;;;;;;;23.83;53.56;94659.69;5114405;28;20034;-91
2023/07/20 05:44:38;;;;;;;15.52;4.55;;;;;;;23.85;53.73;94665.53;5114233;28;20023;-91
2023/07/20 05:47:03;;;;;;;11.95;5.10;;;;;;;23.96;52.97;94667.41;5122659;28;20126;-90
2023/07/20 05:49:29;;;;;;;9.77;4.85;;;;;;;23.89;52.92;94662.41;5117074;28;20023;-91
2023/07/20 05:51:58;;;;;;;13.48;4.68;;;;;;;23.92;53.11;94666.22;5113028;28;20106;-90
2023/07/20 05:54:27;;;;;;;15.50;4.75;;;;;;;23.89;52.91;94659.63;5113285;28;20023;-91
2023/07/20 05:56:52;;;;;;;9.63;4.65;;;;;;;23.96;52.87;94659.00;5111624;28;20031;-88
2023/07/20 05:59:19;;;;;;;12.95;4.78;;;;;;;23.99;52.74;94657.94;5111274;28;20409;-88
2023/07/20 06:01:45;;;;;;;9.90;4.03;;;;;;;24.01;52.65;94648.97;5109925;28;20551;-88
2023/07/20 06:04:10;;;;;;;14.20;4.72;;;;;;;24.02;52.45;94658.91;5109740;28;20027;-87
2023/07/20 06:06:36;;;;;;;13.77;4.75;;;;;;;24.05;52.16;94655.81;5110256;27;20505;-87
2023/07/20 06:09:07;;;;;;;16.38;4.82;;;;;;;24.06;52.36;94654.53;5110116;28;20147;-87
2023/07/20 06:11:33;;;;;;;12.95;4.70;;;;;;;24.14;52.45;94656.69;5109235;28;20023;-88
2023/07/20 06:13:58;;;;;;;13.85;4.60;;;;;;;24.19;52.53;94648.19;5115133;28;20501;-87
2023/07/20 06:16:24;;;;;;;14.18;4.38;;;;;;;24.23;52.16;94650.69;5110759;28;20051;-88
2023/07/20 06:18:49;;;;;;;12.68;4.35;;;;;;;24.25;51.89;94643.25;5109090;28;20024;-87
2023/07/20 06:21:15;;;;;;;11.95;3.78;;;;;;;24.34;51.67;94631.66;5110948;28;20058;-88
2023/07/20 06:23:40;;;;;;;12.10;4.72;;;;;;;24.39;51.58;94637.72;5109712;28;20023;-88
2023/07/20 06:26:07;;;;;;;14.68;4.50;;;;;;;24.45;51.02;94636.34;5110166;28;20523;-88
2023/07/20 06:28:32;;;;;;;11.07;4.25;;;;;;;24.47;51.32;94630.16;5110453;28;20020;-87
2023/07/20 06:31:02;;;;;;;12.40;4.72;;;;;;;24.57;51.44;94634.84;5117669;28;20034;-87
2023/07/20 06:33:27;;;;;;;13.35;4.60;;;;;;;24.70;50.92;94636.94;5111149;28;20505;-87
2023/07/20 06:35:52;;;;;;;12.98;4.63;;;;;;;24.70;51.00;94631.31;5109357;28;20036;-88
2023/07/20 06:38:18;;;;;;;14.60;4.75;;;;;;;24.76;50.41;94626.34;5111313;28;20126;-87
2023/07/20 06:40:46;;;;;;;17.58;4.90;;;;;;;24.84;50.29;94632.09;5096629;27;20028;-86
2023/07/20 06:43:11;;;;;;;9.63;3.63;;;;;;;24.90;50.26;94635.56;5089270;28;20523;-88
2023/07/20 06:45:37;;;;;;;15.38;5.22;;;;;;;24.99;49.72;94628.75;5088347;28;20016;-85
2023/07/20 06:48:03;;;;;;;10.80;4.00;;;;;;;24.99;49.71;94626.69;5089012;28;20028;-86
2023/07/20 06:50:28;;;;;;;8.55;3.80;;;;;;;25.03;49.57;94621.50;5088679;28;20028;-83
2023/07/20 06:52:54;;;;;;;12.68;4.32;;;;;;;25.21;49.72;94630.41;5088113;28;20092;-83
2023/07/20 06:55:19;;;;;;;11.55;4.10;;;;;;;25.36;49.65;94639.81;5090244;28;20069;-87
2023/07/20 06:57:44;;;;;;;12.77;4.18;;;;;;;25.52;49.09;94649.22;5088173;28;20036;-86
2023/07/20 07:00:11;;;;;;;10.68;4.70;;;;;;;25.74;47.93;94658.50;5092018;28;20026;-88
2023/07/20 07:02:36;;;;;;;14.25;4.45;;;;;;;25.86;47.32;94659.78;5090289;28;20039;-91
2023/07/20 07:05:02;;;;;;;12.55;4.20;;;;;;;25.91;47.77;94658.91;5090128;28;20498;-89
2023/07/20 07:07:27;;;;;;;8.30;3.40;;;;;;;26.01;47.28;94656.41;5089351;28;20059;-88
2023/07/20 07:09:53;;;;;;;12.82;4.03;;;;;;;26.10;46.97;94670.03;5089271;28;20507;-88
2023/07/20 07:12:18;;;;;;;9.52;3.45;;;;;;;26.16;47.29;94679.09;5091177;28;20025;-87
2023/07/20 07:14:43;;;;;;;9.98;4.47;;;;;;;26.21;46.14;94690.25;5094247;28;20168;-87
2023/07/20 07:17:09;;;;;;;12.15;4.72;;;;;;;26.28;45.48;94700.09;5091117;28;20525;-87
2023/07/20 07:19:36;;;;;;;12.05;4.22;;;;;;;26.37;45.23;94702.41;5091496;28;20023;-85
2023/07/20 07:22:01;;;;;;;9.85;4.18;;;;;;;26.45;45.32;94702.53;5093801;28;20407;-87
2023/07/20 07:24:33;;;;;;;14.00;4.72;;;;;;;26.45;45.67;94708.19;5089367;28;20405;-87
2023/07/20 07:26:59;;;;;;;9.90;3.60;;;;;;;26.48;45.82;94710.66;5088495;28;20032;-85
2023/07/20 07:29:24;;;;;;;9.30;3.50;;;;;;;26.57;45.60;94714.31;5089375;28;20032;-88
2023/07/20 07:31:49;;;;;;;12.15;4.18;;;;;;;26.59;45.85;94701.16;5087935;28;20380;-86
2023/07/20 07:34:15;;;;;;;9.45;4.20;;;;;;;26.67;45.50;94690.75;5089332;28;20100;-87
2023/07/20 07:36:40;;;;;;;8.05;3.72;;;;;;;26.73;45.44;94693.44;5087728;28;20105;-86
2023/07/20 07:39:06;;;;;;;9.38;3.55;;;;;;;26.82;45.04;94692.16;5088442;28;20024;-86
2023/07/20 07:41:31;;;;;;;8.82;3.28;;;;;;;26.96;44.56;94702.09;5087945;28;20024;-86
2023/07/20 07:43:56;;;;;;;10.77;3.85;;;;;;;27.01;44.23;94706.81;5088046;28;20039;-86
2023/07/20 07:46:22;;;;;;;11.68;4.10;;;;;;;27.05;44.12;94683.91;5088486;28;20036;-86
2023/07/20 07:48:47;;;;;;;7.00;3.30;;;;;;;27.12;43.97;94658.59;5087860;28;20031;-86
2023/07/20 07:51:14;;;;;;;8.98;3.10;;;;;;;27.13;44.14;94657.31;5088290;28;20020;-86
2023/07/20 07:53:40;;;;;;;10.20;3.70;;;;;;;27.27;43.59;94672.81;5086856;28;20911;-86
2023/07/20 07:56:07;;;;;;;7.45;3.30;;;;;;;27.30;43.73;94681.47;5088637;28;20020;-86
2023/07/20 07:58:33;;;;;;;11.75;3.55;;;;;;;27.35;43.94;94667.19;5086947;28;20058;-85
2023/07/20 08:00:58;;;;;;;9.07;3.92;;;;;;;27.38;43.81;94671.75;5088154;28;20060;-85
2023/07/20 08:03:24;;;;;;;9.68;3.28;;;;;;;27.44;43.74;94694.94;5090293;28;20028;-86
2023/07/20 08:05:50;;;;;;;8.27;3.38;;;;;;;27.48;43.86;94703.81;5089820;28;20017;-86
2023/07/20 08:08:15;;;;;;;11.60;3.70;;;;;;;27.52;43.87;94704.19;5091495;28;20024;-86
2023/07/20 08:10:40;;;;;;;10.90;3.70;;;;;;;27.55;44.58;94707.97;5092199;28;20028;-85
2023/07/20 08:13:06;;;;;;;12.07;3.28;;;;;;;27.51;45.00;94707.56;5093939;28;20024;-86
2023/07/20 08:15:31;;;;;;;13.88;3.63;;;;;;;27.56;44.81;94717.97;5090547;28;20411;-85
2023/07/20 08:17:57;;;;;;;10.20;3.83;;;;;;;27.45;44.03;94713.38;5092898;28;20032;-85
2023/07/20 08:20:26;;;;;;;8.02;2.80;;;;;;;27.48;42.79;94720.75;5088120;28;20031;-86
2023/07/20 08:22:55;;;;;;;5.40;2.58;;;;;;;27.38;42.23;94711.25;5087387;28;20016;-85
2023/07/20 08:25:20;;;;;;;9.63;2.80;;;;;;;27.45;42.39;94715.44;5086230;28;20035;-86
2023/07/20 08:27:47;;;;;;;7.47;2.90;;;;;;;27.43;41.71;94712.44;5086820;28;20028;-85
2023/07/20 08:30:13;;;;;;;10.10;3.10;;;;;;;27.48;41.25;94706.63;5087650;28;20020;-87
2023/07/20 08:32:39;;;;;;;6.90;2.42;;;;;;;27.53;41.03;94719.09;5086334;28;20027;-87
2023/07/20 08:35:05;;;;;;;8.65;2.78;;;;;;;27.47;40.65;94710.78;5087497;28;20492;-86
2023/07/20 08:37:31;;;;;;;4.68;2.15;;;;;;;27.50;40.89;94706.06;5086228;28;20873;-86
2023/07/20 08:39:56;;;;;;;11.27;4.47;;;;;;;27.60;41.36;94700.69;5086765;28;20028;-85
2023/07/20 08:42:22;;;;;;;7.32;2.72;;;;;;;27.66;41.58;94690.72;5102262;28;20039;-87
2023/07/20 08:44:48;;;;;;;6.70;2.53;;;;;;;27.74;41.24;94700.00;5086471;28;20048;-86
2023/07/20 08:47:16;;;;;;;6.55;2.70;;;;;;;27.84;40.58;94699.50;5085872;28;20075;-86
2023/07/20 08:49:44;;;;;;;8.02;2.67;;;;;;;27.90;40.95;94697.28;5084162;28;20060;-86
2023/07/20 08:52:12;;;;;;;13.63;3.28;;;;;;;28.04;39.99;94701.47;5085441;28;20073;-86
2023/07/20 08:54:39;;;;;;;10.73;2.75;;;;;;;28.09;39.52;94683.59;5085924;28;20035;-90
2023/07/20 08:57:05;;;;;;;9.50;3.25;;;;;;;28.19;39.47;94686.66;5087001;28;20024;-87
2023/07/20 08:59:32;;;;;;;10.75;3.25;;;;;;;28.33;38.79;94690.09;5086981;28;20016;-87
2023/07/20 09:01:59;;;;;;;7.00;2.70;;;;;;;28.36;37.63;94689.00;5092007;28;20032;-87
2023/07/20 09:04:24;;;;;;;5.32;2.53;;;;;;;28.50;37.32;94679.81;5088091;28;20562;-87
2023/07/20 09:06:50;;;;;;;8.15;2.90;;;;;;;28.61;37.96;94686.41;5086641;28;20047;-87
2023/07/20 09:09:16;;;;;;;7.53;3.28;;;;;;;28.66;36.83;94679.81;5087877;28;20020;-88
2023/07/20 09:11:41;;;;;;;8.57;2.97;;;;;;;28.78;36.81;94684.53;5086219;28;20095;-89
2023/07/20 09:14:08;;;;;;;8.57;3.50;;;;;;;28.87;37.21;94679.66;5086648;28;20103;-89
2023/07/20 09:16:54;;;;;;;8.00;3.30;;;;;;;28.99;36.96;94675.91;5086708;28;20068;-88
2023/07/20 09:19:20;;;;;;;9.63;3.80;;;;;;;29.08;36.99;94669.69;5092920;28;20234;-88
2023/07/20 09:21:51;;;;;;;9.10;3.55;;;;;;;29.27;37.13;94660.78;5093717;28;20043;-87
2023/07/20 09:24:20;;;;;;;10.88;3.13;;;;;;;29.43;36.49;94658.69;5085430;28;20515;-87
2023/07/20 09:26:50;;;;;;;10.27;3.25;;;;;;;29.56;35.77;94657.75;5087371;28;20032;-87
2023/07/20 09:29:20;;;;;;;9.15;3.00;;;;;;;29.70;36.55;94661.84;5086045;28;20114;-87
2023/07/20 09:32:05;;;;;;;11.73;3.35;;;;;;;29.88;34.92;94654.25;5087238;28;20021;-87
2023/07/20 09:34:31;;;;;;;9.18;2.80;;;;;;;30.02;34.30;94666.84;5087126;28;20030;-87
2023/07/20 09:36:58;;;;;;;8.38;3.05;;;;;;;30.17;34.17;94656.81;5084538;28;20034;-87
2023/07/20 09:39:23;;;;;;;7.88;2.50;;;;;;;30.32;34.03;94643.28;5086014;28;20039;-87
2023/07/20 09:41:49;;;;;;;8.80;3.38;;;;;;;30.46;33.79;94655.13;5084456;28;20020;-87
2023/07/20 09:44:15;;;;;;;10.45;3.83;;;;;;;30.55;33.53;94662.25;5085786;28;20024;-87
2023/07/20 09:46:42;;;;;;;7.72;2.88;;;;;;;30.71;32.84;94657.25;5084519;28;20084;-87
2023/07/20 09:49:08;;;;;;;8.88;3.50;;;;;;;30.82;32.70;94649.03;5086977;28;20047;-87
2023/07/20 09:51:34;;;;;;;6.78;3.20;;;;;;;31.02;32.20;94643.56;5088199;28;20109;-87
2023/07/20 09:53:59;;;;;;;9.73;3.25;;;;;;;31.14;31.84;94636.84;5088718;28;20024;-87
2023/07/20 09:56:26;;;;;;;8.32;2.97;;;;;;;31.11;31.72;94618.13;5085753;28;20567;-87
2023/07/20 09:58:51;;;;;;;8.98;3.38;;;;;;;31.13;32.43;94623.97;5085069;28;20486;-87
2023/07/20 10:01:21;;;;;;;10.07;4.57;;;;;;;31.15;31.54;94629.84;5086383;28;20076;-88
2023/07/20 10:03:47;;;;;;;11.50;4.10;;;;;;;31.13;31.61;94626.06;5085775;28;20103;-86
2023/07/20 10:06:15;;;;;;;6.85;2.78;;;;;;;31.13;31.49;94637.41;5085536;28;20032;-87
2023/07/20 10:08:41;;;;;;;7.68;2.40;;;;;;;31.06;31.63;94635.41;5085169;28;20656;-87
2023/07/20 10:11:08;;;;;;;8.35;2.70;;;;;;;31.02;31.97;94632.97;5085689;28;20032;-84
2023/07/20 10:13:37;;;;;;;10.27;2.42;;;;;;;31.06;31.14;94633.31;5085343;28;20032;-87
2023/07/20 10:16:12;;;;;;;6.70;2.35;;;;;;;31.10;31.17;94644.28;5084505;28;20537;-85
2023/07/20 10:18:53;;;;;;;7.07;2.83;;;;;;;31.15;31.00;94635.50;5085484;28;20028;-88
2023/07/20 10:21:20;;;;;;;6.97;2.45;;;;;;;31.15;31.44;94646.13;5089906;28;20020;-87
2023/07/20 10:23:46;;;;;;;4.40;2.10;;;;;;;31.10;30.94;94645.03;5092261;28;20027;-86
2023/07/20 10:26:11;;;;;;;5.18;2.17;;;;;;;31.14;31.44;94644.59;5089931;28;20032;-86
2023/07/20 10:28:38;;;;;;;9.07;2.60;;;;;;;31.16;30.77;94625.66;5088090;28;20020;-86
2023/07/20 10:31:03;;;;;;;5.95;2.00;;;;;;;31.17;30.92;94618.66;5097159;28;20028;-86
2023/07/20 10:33:29;;;;;;;4.95;2.63;;;;;;;31.10;31.11;94630.06;5093515;28;20028;-86
2023/07/20 10:36:01;;;;;;;6.10;2.25;;;;;;;30.99;31.01;94622.03;5090875;28;20034;-86
2023/07/20 10:38:56;;;;;;;6.43;2.60;;;;;;;30.88;31.31;94626.84;5088110;28;20575;-85
2023/07/20 10:41:27;;;;;;;5.70;2.33;;;;;;;30.82;31.63;94629.16;5091720;28;20035;-85
2023/07/20 10:44:07;;;;;;;7.75;2.00;;;;;;;30.73;32.14;94586.50;5095215;28;20072;-85
2023/07/20 10:46:38;;;;;;;6.03;2.05;;;;;;;30.75;32.71;94556.22;5088898;28;20059;-85
2023/07/20 10:49:05;;;;;;;9.75;2.83;;;;;;;30.86;34.68;94563.50;5089546;28;20208;-85
2023/07/20 10:51:39;;;;;;;5.88;2.08;;;;;;;30.97;35.25;94607.66;5089117;28;20024;-85
2023/07/20 10:54:08;;;;;;;4.78;2.20;;;;;;;31.01;31.73;94608.75;5088482;28;20564;-86
2023/07/20 10:56:33;;;;;;;5.85;2.20;;;;;;;31.05;30.79;94597.00;5088558;28;20020;-87
2023/07/20 10:59:00;;;;;;;4.90;2.28;;;;;;;31.12;30.90;94587.66;5087039;28;20024;-87
2023/07/20 11:01:30;;;;;;;6.85;3.13;;;;;;;31.17;31.00;94572.47;5089352;28;20028;-85
2023/07/20 11:03:58;;;;;;;6.13;2.42;;;;;;;31.27;30.65;94569.75;5087690;28;20023;-86
2023/07/20 11:06:23;;;;;;;7.38;3.20;;;;;;;31.43;30.16;94571.84;5089176;28;20107;-87
2023/07/20 11:08:50;;;;;;;4.88;2.20;;;;;;;31.48;30.03;94563.63;5088572;28;20161;-87
2023/07/20 11:11:26;;;;;;;8.50;2.97;;;;;;;31.63;30.66;94567.06;5086870;28;20076;-87
2023/07/20 11:14:06;;;;;;;8.98;3.20;;;;;;;31.59;30.33;94568.81;5089052;28;20529;-85
2023/07/20 11:16:39;;;;;;;7.70;3.00;;;;;;;31.66;30.05;94562.31;5087390;28;20052;-85
2023/07/20 11:19:05;;;;;;;7.45;3.25;;;;;;;31.84;30.26;94560.22;5089065;28;20032;-87
2023/07/20 11:21:38;;;;;;;7.80;3.25;;;;;;;31.95;30.14;94560.44;5088062;28;20020;-88
2023/07/20 11:24:05;;;;;;;8.55;3.63;;;;;;;32.00;29.73;94558.66;5088712;28;20043;-86
2023/07/20 11:26:30;;;;;;;7.85;3.10;;;;;;;32.06;29.32;94549.84;5092563;28;20028;-87
2023/07/20 11:28:56;;;;;;;9.95;3.72;;;;;;;32.20;29.84;94557.41;5086322;28;20020;-86
2023/07/20 11:31:21;;;;;;;6.78;2.97;;;;;;;32.38;30.03;94546.75;5089574;28;20016;-88